sensor_id;sensor_type;location;lat;lon;timestamp;P1;durP1;ratioP1;P2;durP2;ratioP2
30133;SDS011;16946;49.984;10.672;2022-12-31T00:00:10;1.53;;;1.30;;
30133;SDS011;16946;49.984;10.672;2022-12-31T00:00:41;2.30;;;1.38;;
30133;SDS011;16946;49.984;10.672;2022-12-31T00:01:12;2.23;;;1.40;;
30133;SDS011;16946;49.984;10.672;2022-12-31T00:01:44;1.30;;;1.20;;
30133;SDS011;16946;49.984;10.672;2022-12-31T00:02:14;2.13;;;1.00;;
30133;SDS011;16946;49.984;10.672;2022-12-31T00:02:45;1.67;;;1.20;;
30133;SDS011;16946;49.984;10.672;2022-12-31T00:03:15;1.60;;;1.00;;
30133;SDS011;16946;49.984;10.672;2022-12-31T00:03:46;1.70;;;1.00;;
30133;SDS011;16946;49.984;10.672;2022-12-31T00:04:17;1.70;;;1.03;;
30133;SDS011;16946;49.984;10.672;2022-12-31T00:04:47;1.83;;;1.20;;
30133;SDS011;16946;49.984;10.672;2022-12-31T00:05:18;1.70;;;1.10;;
30133;SDS011;16946;49.984;10.672;2022-12-31T00:05:48;2.17;;;1.10;;
30133;SDS011;16946;49.984;10.672;2022-12-31T00:06:23;1.40;;;1.30;;
30133;SDS011;16946;49.984;10.672;2022-12-31T00:07:01;1.45;;;1.00;;
30133;SDS011;16946;49.984;10.672;2022-12-31T00:07:33;1.20;;;1.10;;
30133;SDS011;16946;49.984;10.672;2022-12-31T00:08:04;2.08;;;1.00;;
30133;SDS011;16946;49.984;10.672;2022-12-31T00:08:35;1.40;;;1.20;;
30133;SDS011;16946;49.984;10.672;2022-12-31T00:09:06;2.67;;;1.13;;
30133;SDS011;16946;49.984;10.672;2022-12-31T00:09:37;1.45;;;1.13;;
30133;SDS011;16946;49.984;10.672;2022-12-31T00:10:08;1.43;;;1.20;;
30133;SDS011;16946;49.984;10.672;2022-12-31T00:10:38;1.70;;;1.20;;
30133;SDS011;16946;49.984;10.672;2022-12-31T00:11:10;1.33;;;1.23;;
30133;SDS011;16946;49.984;10.672;2022-12-31T00:11:40;1.20;;;1.10;;
30133;SDS011;16946;49.984;10.672;2022-12-31T00:12:11;1.30;;;1.20;;
30133;SDS011;16946;49.984;10.672;2022-12-31T00:12:41;1.63;;;1.20;;
30133;SDS011;16946;49.984;10.672;2022-12-31T00:13:12;2.93;;;1.40;;
30133;SDS011;16946;49.984;10.672;2022-12-31T00:13:43;1.90;;;1.00;;
30133;SDS011;16946;49.984;10.672;2022-12-31T00:14:15;2.05;;;0.98;;
30133;SDS011;16946;49.984;10.672;2022-12-31T00:14:46;1.60;;;1.00;;
30133;SDS011;16946;49.984;10.672;2022-12-31T00:15:16;2.27;;;1.23;;
30133;SDS011;16946;49.984;10.672;2022-12-31T00:15:47;1.37;;;1.00;;
30133;SDS011;16946;49.984;10.672;2022-12-31T00:16:21;1.43;;;1.30;;
30133;SDS011;16946;49.984;10.672;2022-12-31T00:17:00;1.20;;;1.10;;
30133;SDS011;16946;49.984;10.672;2022-12-31T00:17:31;1.67;;;1.10;;
30133;SDS011;16946;49.984;10.672;2022-12-31T00:18:01;1.40;;;1.10;;
30133;SDS011;16946;49.984;10.672;2022-12-31T00:18:32;1.13;;;1.00;;
30133;SDS011;16946;49.984;10.672;2022-12-31T00:19:02;1.30;;;1.03;;
30133;SDS011;16946;49.984;10.672;2022-12-31T00:19:34;1.20;;;1.10;;
30133;SDS011;16946;49.984;10.672;2022-12-31T00:20:05;1.23;;;1.00;;
30133;SDS011;16946;49.984;10.672;2022-12-31T00:20:39;1.30;;;0.98;;
30133;SDS011;16946;49.984;10.672;2022-12-31T00:21:10;1.63;;;0.88;;
30133;SDS011;16946;49.984;10.672;2022-12-31T00:21:42;1.27;;;1.15;;
30133;SDS011;16946;49.984;10.672;2022-12-31T00:22:12;2.10;;;1.10;;
30133;SDS011;16946;49.984;10.672;2022-12-31T00:22:43;2.60;;;1.20;;
30133;SDS011;16946;49.984;10.672;2022-12-31T00:23:13;1.90;;;1.13;;
30133;SDS011;16946;49.984;10.672;2022-12-31T00:23:44;2.47;;;1.10;;
30133;SDS011;16946;49.984;10.672;2022-12-31T00:24:15;1.53;;;1.00;;
30133;SDS011;16946;49.984;10.672;2022-12-31T00:24:45;1.10;;;1.00;;
30133;SDS011;16946;49.984;10.672;2022-12-31T00:25:16;2.43;;;1.20;;
30133;SDS011;16946;49.984;10.672;2022-12-31T00:25:47;1.90;;;1.00;;
30133;SDS011;16946;49.984;10.672;2022-12-31T00:26:18;2.27;;;0.97;;
30133;SDS011;16946;49.984;10.672;2022-12-31T00:26:50;1.27;;;1.17;;
30133;SDS011;16946;49.984;10.672;2022-12-31T00:27:21;2.20;;;1.20;;
30133;SDS011;16946;49.984;10.672;2022-12-31T00:27:51;1.10;;;1.00;;
30133;SDS011;16946;49.984;10.672;2022-12-31T00:28:23;0.77;;;0.77;;
30133;SDS011;16946;49.984;10.672;2022-12-31T00:28:54;1.10;;;1.00;;
30133;SDS011;16946;49.984;10.672;2022-12-31T00:29:26;2.40;;;1.50;;
30133;SDS011;16946;49.984;10.672;2022-12-31T00:29:56;0.97;;;0.90;;
30133;SDS011;16946;49.984;10.672;2022-12-31T00:30:27;1.67;;;1.03;;
30133;SDS011;16946;49.984;10.672;2022-12-31T00:31:03;1.30;;;1.07;;
30133;SDS011;16946;49.984;10.672;2022-12-31T00:31:38;1.58;;;1.00;;
30133;SDS011;16946;49.984;10.672;2022-12-31T00:32:08;1.00;;;0.90;;
30133;SDS011;16946;49.984;10.672;2022-12-31T00:32:39;1.73;;;1.00;;
30133;SDS011;16946;49.984;10.672;2022-12-31T00:33:10;1.27;;;1.00;;
30133;SDS011;16946;49.984;10.672;2022-12-31T00:33:40;1.50;;;1.00;;
30133;SDS011;16946;49.984;10.672;2022-12-31T00:34:11;2.05;;;1.02;;
30133;SDS011;16946;49.984;10.672;2022-12-31T00:34:42;1.33;;;1.00;;
30133;SDS011;16946;49.984;10.672;2022-12-31T00:35:12;1.10;;;1.00;;
30133;SDS011;16946;49.984;10.672;2022-12-31T00:35:43;0.80;;;0.80;;
30133;SDS011;16946;49.984;10.672;2022-12-31T00:36:14;1.47;;;1.10;;
30133;SDS011;16946;49.984;10.672;2022-12-31T00:36:47;0.80;;;0.80;;
30133;SDS011;16946;49.984;10.672;2022-12-31T00:37:18;1.67;;;0.97;;
30133;SDS011;16946;49.984;10.672;2022-12-31T00:37:50;1.73;;;0.90;;
30133;SDS011;16946;49.984;10.672;2022-12-31T00:38:21;1.63;;;1.30;;
30133;SDS011;16946;49.984;10.672;2022-12-31T00:38:52;1.17;;;1.07;;
30133;SDS011;16946;49.984;10.672;2022-12-31T00:39:24;2.67;;;0.90;;
30133;SDS011;16946;49.984;10.672;2022-12-31T00:39:54;0.80;;;0.80;;
30133;SDS011;16946;49.984;10.672;2022-12-31T00:40:25;1.80;;;0.90;;
30133;SDS011;16946;49.984;10.672;2022-12-31T00:40:58;1.00;;;0.85;;
30133;SDS011;16946;49.984;10.672;2022-12-31T00:41:28;1.90;;;0.80;;
30133;SDS011;16946;49.984;10.672;2022-12-31T00:41:59;6.05;;;1.30;;
30133;SDS011;16946;49.984;10.672;2022-12-31T00:42:30;1.73;;;1.00;;
30133;SDS011;16946;49.984;10.672;2022-12-31T00:43:00;2.10;;;0.90;;
30133;SDS011;16946;49.984;10.672;2022-12-31T00:43:31;1.10;;;0.90;;
30133;SDS011;16946;49.984;10.672;2022-12-31T00:44:01;1.17;;;1.00;;
30133;SDS011;16946;49.984;10.672;2022-12-31T00:44:32;1.57;;;1.10;;
30133;SDS011;16946;49.984;10.672;2022-12-31T00:45:03;1.37;;;0.80;;
30133;SDS011;16946;49.984;10.672;2022-12-31T00:45:33;1.03;;;0.90;;
30133;SDS011;16946;49.984;10.672;2022-12-31T00:46:04;1.10;;;1.00;;
30133;SDS011;16946;49.984;10.672;2022-12-31T00:46:35;2.67;;;1.02;;
30133;SDS011;16946;49.984;10.672;2022-12-31T00:47:06;1.37;;;0.90;;
30133;SDS011;16946;49.984;10.672;2022-12-31T00:47:36;1.90;;;1.00;;
30133;SDS011;16946;49.984;10.672;2022-12-31T00:48:07;0.80;;;0.80;;
30133;SDS011;16946;49.984;10.672;2022-12-31T00:48:38;2.23;;;1.10;;
30133;SDS011;16946;49.984;10.672;2022-12-31T00:49:09;0.95;;;0.80;;
30133;SDS011;16946;49.984;10.672;2022-12-31T00:49:40;1.88;;;1.00;;
30133;SDS011;16946;49.984;10.672;2022-12-31T00:50:10;1.00;;;0.70;;
30133;SDS011;16946;49.984;10.672;2022-12-31T00:50:41;1.17;;;0.90;;
30133;SDS011;16946;49.984;10.672;2022-12-31T00:51:13;2.30;;;0.90;;
30133;SDS011;16946;49.984;10.672;2022-12-31T00:51:46;2.00;;;1.02;;
30133;SDS011;16946;49.984;10.672;2022-12-31T00:52:16;0.73;;;0.73;;
30133;SDS011;16946;49.984;10.672;2022-12-31T00:52:47;1.00;;;0.90;;
30133;SDS011;16946;49.984;10.672;2022-12-31T00:53:18;1.00;;;0.90;;
30133;SDS011;16946;49.984;10.672;2022-12-31T00:53:49;2.72;;;0.95;;
30133;SDS011;16946;49.984;10.672;2022-12-31T00:54:19;1.57;;;1.00;;
30133;SDS011;16946;49.984;10.672;2022-12-31T00:54:50;1.37;;;0.90;;
30133;SDS011;16946;49.984;10.672;2022-12-31T00:55:20;0.97;;;0.80;;
30133;SDS011;16946;49.984;10.672;2022-12-31T00:55:51;1.30;;;1.00;;
30133;SDS011;16946;49.984;10.672;2022-12-31T00:56:28;0.70;;;0.70;;
30133;SDS011;16946;49.984;10.672;2022-12-31T00:56:59;2.75;;;1.00;;
30133;SDS011;16946;49.984;10.672;2022-12-31T00:57:30;1.27;;;1.00;;
30133;SDS011;16946;49.984;10.672;2022-12-31T00:58:00;1.30;;;0.93;;
30133;SDS011;16946;49.984;10.672;2022-12-31T00:58:31;2.90;;;0.93;;
30133;SDS011;16946;49.984;10.672;2022-12-31T00:59:02;1.27;;;0.77;;
30133;SDS011;16946;49.984;10.672;2022-12-31T00:59:33;2.97;;;0.90;;
30133;SDS011;16946;49.984;10.672;2022-12-31T01:00:04;0.87;;;0.70;;
30133;SDS011;16946;49.984;10.672;2022-12-31T01:00:36;1.15;;;0.80;;
30133;SDS011;16946;49.984;10.672;2022-12-31T01:01:11;1.10;;;0.80;;
30133;SDS011;16946;49.984;10.672;2022-12-31T01:01:42;1.17;;;0.88;;
30133;SDS011;16946;49.984;10.672;2022-12-31T01:02:12;1.50;;;0.80;;
30133;SDS011;16946;49.984;10.672;2022-12-31T01:02:43;2.50;;;0.90;;
30133;SDS011;16946;49.984;10.672;2022-12-31T01:03:13;1.23;;;0.80;;
30133;SDS011;16946;49.984;10.672;2022-12-31T01:03:44;2.47;;;0.90;;
30133;SDS011;16946;49.984;10.672;2022-12-31T01:04:17;1.15;;;0.70;;
30133;SDS011;16946;49.984;10.672;2022-12-31T01:04:48;1.25;;;0.73;;
30133;SDS011;16946;49.984;10.672;2022-12-31T01:05:19;1.00;;;0.80;;
30133;SDS011;16946;49.984;10.672;2022-12-31T01:05:50;1.77;;;1.00;;
30133;SDS011;16946;49.984;10.672;2022-12-31T01:06:21;0.70;;;0.70;;
30133;SDS011;16946;49.984;10.672;2022-12-31T01:06:52;0.83;;;0.80;;
30133;SDS011;16946;49.984;10.672;2022-12-31T01:07:22;1.80;;;0.77;;
30133;SDS011;16946;49.984;10.672;2022-12-31T01:07:53;0.80;;;0.67;;
30133;SDS011;16946;49.984;10.672;2022-12-31T01:08:23;0.80;;;0.70;;
30133;SDS011;16946;49.984;10.672;2022-12-31T01:08:54;1.10;;;0.90;;
30133;SDS011;16946;49.984;10.672;2022-12-31T01:09:25;0.90;;;0.73;;
30133;SDS011;16946;49.984;10.672;2022-12-31T01:09:56;1.40;;;0.90;;
30133;SDS011;16946;49.984;10.672;2022-12-31T01:10:26;1.20;;;0.80;;
30133;SDS011;16946;49.984;10.672;2022-12-31T01:11:15;1.17;;;0.77;;
30133;SDS011;16946;49.984;10.672;2022-12-31T01:11:51;1.48;;;0.80;;
30133;SDS011;16946;49.984;10.672;2022-12-31T01:12:22;1.10;;;1.00;;
30133;SDS011;16946;49.984;10.672;2022-12-31T01:12:54;1.08;;;0.75;;
30133;SDS011;16946;49.984;10.672;2022-12-31T01:13:24;2.30;;;0.80;;
30133;SDS011;16946;49.984;10.672;2022-12-31T01:14:29;0.90;;;0.80;;
30133;SDS011;16946;49.984;10.672;2022-12-31T01:15:02;0.70;;;0.70;;
30133;SDS011;16946;49.984;10.672;2022-12-31T01:15:33;2.45;;;0.80;;
30133;SDS011;16946;49.984;10.672;2022-12-31T01:16:08;1.95;;;0.80;;
30133;SDS011;16946;49.984;10.672;2022-12-31T01:16:49;1.70;;;0.82;;
30133;SDS011;16946;49.984;10.672;2022-12-31T01:17:21;1.45;;;0.70;;
30133;SDS011;16946;49.984;10.672;2022-12-31T01:17:51;1.10;;;0.70;;
30133;SDS011;16946;49.984;10.672;2022-12-31T01:18:22;1.63;;;0.70;;
30133;SDS011;16946;49.984;10.672;2022-12-31T01:18:52;2.03;;;0.83;;
30133;SDS011;16946;49.984;10.672;2022-12-31T01:19:25;1.20;;;0.63;;
30133;SDS011;16946;49.984;10.672;2022-12-31T01:19:57;2.25;;;0.88;;
30133;SDS011;16946;49.984;10.672;2022-12-31T01:20:28;1.37;;;0.70;;
30133;SDS011;16946;49.984;10.672;2022-12-31T01:21:02;1.27;;;0.77;;
30133;SDS011;16946;49.984;10.672;2022-12-31T01:21:35;1.23;;;0.73;;
30133;SDS011;16946;49.984;10.672;2022-12-31T01:22:07;1.08;;;0.85;;
30133;SDS011;16946;49.984;10.672;2022-12-31T01:22:37;1.30;;;0.90;;
30133;SDS011;16946;49.984;10.672;2022-12-31T01:23:08;1.20;;;0.80;;
30133;SDS011;16946;49.984;10.672;2022-12-31T01:23:40;1.10;;;0.60;;
30133;SDS011;16946;49.984;10.672;2022-12-31T01:24:11;1.50;;;0.80;;
30133;SDS011;16946;49.984;10.672;2022-12-31T01:24:42;1.13;;;0.65;;
30133;SDS011;16946;49.984;10.672;2022-12-31T01:25:12;1.93;;;0.60;;
30133;SDS011;16946;49.984;10.672;2022-12-31T01:25:43;0.77;;;0.77;;
30133;SDS011;16946;49.984;10.672;2022-12-31T01:26:14;1.60;;;0.80;;
30133;SDS011;16946;49.984;10.672;2022-12-31T01:26:45;2.40;;;0.80;;
30133;SDS011;16946;49.984;10.672;2022-12-31T01:27:16;0.90;;;0.70;;
30133;SDS011;16946;49.984;10.672;2022-12-31T01:27:47;0.93;;;0.83;;
30133;SDS011;16946;49.984;10.672;2022-12-31T01:28:17;0.90;;;0.70;;
30133;SDS011;16946;49.984;10.672;2022-12-31T01:28:48;0.80;;;0.70;;
30133;SDS011;16946;49.984;10.672;2022-12-31T01:29:18;0.87;;;0.73;;
30133;SDS011;16946;49.984;10.672;2022-12-31T01:29:49;2.03;;;0.80;;
30133;SDS011;16946;49.984;10.672;2022-12-31T01:30:19;1.93;;;0.70;;
30133;SDS011;16946;49.984;10.672;2022-12-31T01:30:50;1.90;;;1.10;;
30133;SDS011;16946;49.984;10.672;2022-12-31T01:31:21;1.20;;;0.80;;
30133;SDS011;16946;49.984;10.672;2022-12-31T01:31:52;2.33;;;0.90;;
30133;SDS011;16946;49.984;10.672;2022-12-31T01:32:23;0.80;;;0.60;;
30133;SDS011;16946;49.984;10.672;2022-12-31T01:32:53;2.13;;;0.60;;
30133;SDS011;16946;49.984;10.672;2022-12-31T01:33:24;0.87;;;0.70;;
30133;SDS011;16946;49.984;10.672;2022-12-31T01:33:54;1.13;;;0.83;;
30133;SDS011;16946;49.984;10.672;2022-12-31T01:34:26;1.27;;;0.70;;
30133;SDS011;16946;49.984;10.672;2022-12-31T01:34:56;1.03;;;0.60;;
30133;SDS011;16946;49.984;10.672;2022-12-31T01:35:27;0.97;;;0.70;;
30133;SDS011;16946;49.984;10.672;2022-12-31T01:36:02;2.30;;;0.90;;
30133;SDS011;16946;49.984;10.672;2022-12-31T01:36:34;1.23;;;0.60;;
30133;SDS011;16946;49.984;10.672;2022-12-31T01:37:06;0.70;;;0.57;;
30133;SDS011;16946;49.984;10.672;2022-12-31T01:37:36;1.00;;;0.80;;
30133;SDS011;16946;49.984;10.672;2022-12-31T01:38:07;0.80;;;0.75;;
30133;SDS011;16946;49.984;10.672;2022-12-31T01:38:39;1.00;;;0.73;;
30133;SDS011;16946;49.984;10.672;2022-12-31T01:39:10;0.70;;;0.63;;
30133;SDS011;16946;49.984;10.672;2022-12-31T01:39:41;2.28;;;0.93;;
30133;SDS011;16946;49.984;10.672;2022-12-31T01:40:12;0.63;;;0.50;;
30133;SDS011;16946;49.984;10.672;2022-12-31T01:40:42;0.83;;;0.60;;
30133;SDS011;16946;49.984;10.672;2022-12-31T01:41:14;1.67;;;0.90;;
30133;SDS011;16946;49.984;10.672;2022-12-31T01:41:49;1.63;;;0.70;;
30133;SDS011;16946;49.984;10.672;2022-12-31T01:42:19;1.60;;;0.60;;
30133;SDS011;16946;49.984;10.672;2022-12-31T01:42:56;1.77;;;0.60;;
30133;SDS011;16946;49.984;10.672;2022-12-31T01:43:44;1.85;;;0.60;;
30133;SDS011;16946;49.984;10.672;2022-12-31T01:44:54;1.40;;;0.70;;
30133;SDS011;16946;49.984;10.672;2022-12-31T01:45:25;1.13;;;0.70;;
30133;SDS011;16946;49.984;10.672;2022-12-31T01:45:56;1.80;;;0.80;;
30133;SDS011;16946;49.984;10.672;2022-12-31T01:46:36;1.63;;;0.70;;
30133;SDS011;16946;49.984;10.672;2022-12-31T01:47:12;1.00;;;0.68;;
30133;SDS011;16946;49.984;10.672;2022-12-31T01:47:47;1.20;;;0.70;;
30133;SDS011;16946;49.984;10.672;2022-12-31T01:48:22;2.00;;;0.80;;
30133;SDS011;16946;49.984;10.672;2022-12-31T01:48:56;1.05;;;0.60;;
30133;SDS011;16946;49.984;10.672;2022-12-31T01:50:33;0.98;;;0.60;;
30133;SDS011;16946;49.984;10.672;2022-12-31T01:51:06;1.52;;;0.65;;
30133;SDS011;16946;49.984;10.672;2022-12-31T01:51:39;2.05;;;0.60;;
30133;SDS011;16946;49.984;10.672;2022-12-31T01:52:57;1.52;;;0.90;;
30133;SDS011;16946;49.984;10.672;2022-12-31T01:53:33;0.75;;;0.55;;
30133;SDS011;16946;49.984;10.672;2022-12-31T01:54:05;0.90;;;0.50;;
30133;SDS011;16946;49.984;10.672;2022-12-31T01:54:39;1.10;;;0.68;;
30133;SDS011;16946;49.984;10.672;2022-12-31T01:55:57;1.88;;;0.70;;
30133;SDS011;16946;49.984;10.672;2022-12-31T01:56:29;1.80;;;0.70;;
30133;SDS011;16946;49.984;10.672;2022-12-31T01:56:59;0.57;;;0.57;;
30133;SDS011;16946;49.984;10.672;2022-12-31T01:57:31;1.95;;;0.65;;
30133;SDS011;16946;49.984;10.672;2022-12-31T01:58:05;0.73;;;0.63;;
30133;SDS011;16946;49.984;10.672;2022-12-31T01:58:41;0.60;;;0.55;;
30133;SDS011;16946;49.984;10.672;2022-12-31T01:59:15;0.82;;;0.60;;
30133;SDS011;16946;49.984;10.672;2022-12-31T01:59:47;0.80;;;0.80;;
30133;SDS011;16946;49.984;10.672;2022-12-31T02:00:18;0.60;;;0.60;;
30133;SDS011;16946;49.984;10.672;2022-12-31T02:00:48;0.60;;;0.60;;
30133;SDS011;16946;49.984;10.672;2022-12-31T02:01:25;1.30;;;0.75;;
30133;SDS011;16946;49.984;10.672;2022-12-31T02:01:59;3.00;;;0.70;;
30133;SDS011;16946;49.984;10.672;2022-12-31T02:02:30;0.70;;;0.60;;
30133;SDS011;16946;49.984;10.672;2022-12-31T02:03:00;1.57;;;0.77;;
30133;SDS011;16946;49.984;10.672;2022-12-31T02:03:34;0.70;;;0.70;;
30133;SDS011;16946;49.984;10.672;2022-12-31T02:04:08;0.93;;;0.80;;
30133;SDS011;16946;49.984;10.672;2022-12-31T02:04:41;0.85;;;0.60;;
30133;SDS011;16946;49.984;10.672;2022-12-31T02:05:17;1.33;;;0.70;;
30133;SDS011;16946;49.984;10.672;2022-12-31T02:06:13;1.80;;;0.70;;
30133;SDS011;16946;49.984;10.672;2022-12-31T02:06:50;0.80;;;0.70;;
30133;SDS011;16946;49.984;10.672;2022-12-31T02:07:28;2.65;;;0.82;;
30133;SDS011;16946;49.984;10.672;2022-12-31T02:07:59;0.70;;;0.70;;
30133;SDS011;16946;49.984;10.672;2022-12-31T02:08:31;0.95;;;0.65;;
30133;SDS011;16946;49.984;10.672;2022-12-31T02:09:02;1.10;;;0.68;;
30133;SDS011;16946;49.984;10.672;2022-12-31T02:09:34;1.43;;;0.80;;
30133;SDS011;16946;49.984;10.672;2022-12-31T02:10:07;1.13;;;0.70;;
30133;SDS011;16946;49.984;10.672;2022-12-31T02:10:37;2.00;;;0.60;;
30133;SDS011;16946;49.984;10.672;2022-12-31T02:11:25;1.53;;;0.70;;
30133;SDS011;16946;49.984;10.672;2022-12-31T02:11:57;0.70;;;0.70;;
30133;SDS011;16946;49.984;10.672;2022-12-31T02:12:28;1.40;;;0.70;;
30133;SDS011;16946;49.984;10.672;2022-12-31T02:12:59;0.83;;;0.70;;
30133;SDS011;16946;49.984;10.672;2022-12-31T02:13:30;1.88;;;0.77;;
30133;SDS011;16946;49.984;10.672;2022-12-31T02:14:05;0.70;;;0.70;;
30133;SDS011;16946;49.984;10.672;2022-12-31T02:14:45;2.05;;;0.73;;
30133;SDS011;16946;49.984;10.672;2022-12-31T02:15:20;0.80;;;0.70;;
30133;SDS011;16946;49.984;10.672;2022-12-31T02:16:06;1.15;;;0.70;;
30133;SDS011;16946;49.984;10.672;2022-12-31T02:16:48;1.48;;;0.80;;
30133;SDS011;16946;49.984;10.672;2022-12-31T02:19:03;1.25;;;0.80;;
30133;SDS011;16946;49.984;10.672;2022-12-31T02:21:45;0.63;;;0.63;;
30133;SDS011;16946;49.984;10.672;2022-12-31T02:23:53;1.10;;;0.82;;
30133;SDS011;16946;49.984;10.672;2022-12-31T02:28:33;0.63;;;0.60;;
30133;SDS011;16946;49.984;10.672;2022-12-31T02:29:59;0.82;;;0.60;;
30133;SDS011;16946;49.984;10.672;2022-12-31T02:30:47;1.30;;;0.65;;
30133;SDS011;16946;49.984;10.672;2022-12-31T02:31:25;1.33;;;0.80;;
30133;SDS011;16946;49.984;10.672;2022-12-31T02:32:07;1.00;;;0.70;;
30133;SDS011;16946;49.984;10.672;2022-12-31T02:32:46;2.33;;;0.70;;
30133;SDS011;16946;49.984;10.672;2022-12-31T02:33:41;0.60;;;0.50;;
30133;SDS011;16946;49.984;10.672;2022-12-31T02:34:23;0.55;;;0.50;;
30133;SDS011;16946;49.984;10.672;2022-12-31T02:35:06;1.77;;;0.80;;
30133;SDS011;16946;49.984;10.672;2022-12-31T02:35:57;0.50;;;0.50;;
30133;SDS011;16946;49.984;10.672;2022-12-31T02:36:32;1.20;;;0.52;;
30133;SDS011;16946;49.984;10.672;2022-12-31T02:37:07;0.50;;;0.50;;
30133;SDS011;16946;49.984;10.672;2022-12-31T02:37:40;0.70;;;0.70;;
30133;SDS011;16946;49.984;10.672;2022-12-31T02:38:21;0.63;;;0.60;;
30133;SDS011;16946;49.984;10.672;2022-12-31T02:39:00;0.60;;;0.60;;
30133;SDS011;16946;49.984;10.672;2022-12-31T02:39:33;0.60;;;0.60;;
30133;SDS011;16946;49.984;10.672;2022-12-31T02:40:05;2.65;;;0.60;;
30133;SDS011;16946;49.984;10.672;2022-12-31T02:40:38;0.50;;;0.50;;
30133;SDS011;16946;49.984;10.672;2022-12-31T02:41:13;0.53;;;0.53;;
30133;SDS011;16946;49.984;10.672;2022-12-31T02:42:06;1.13;;;0.60;;
30133;SDS011;16946;49.984;10.672;2022-12-31T02:42:39;1.17;;;0.63;;
30133;SDS011;16946;49.984;10.672;2022-12-31T02:43:09;0.80;;;0.60;;
30133;SDS011;16946;49.984;10.672;2022-12-31T02:43:46;0.50;;;0.50;;
30133;SDS011;16946;49.984;10.672;2022-12-31T02:44:53;2.40;;;0.50;;
30133;SDS011;16946;49.984;10.672;2022-12-31T02:45:26;1.47;;;0.70;;
30133;SDS011;16946;49.984;10.672;2022-12-31T02:47:05;3.08;;;0.80;;
30133;SDS011;16946;49.984;10.672;2022-12-31T02:49:13;0.55;;;0.55;;
30133;SDS011;16946;49.984;10.672;2022-12-31T02:50:43;1.30;;;0.70;;
30133;SDS011;16946;49.984;10.672;2022-12-31T02:51:45;2.10;;;0.70;;
30133;SDS011;16946;49.984;10.672;2022-12-31T02:53:28;0.73;;;0.50;;
30133;SDS011;16946;49.984;10.672;2022-12-31T02:54:57;0.88;;;0.55;;
30133;SDS011;16946;49.984;10.672;2022-12-31T02:56:07;0.70;;;0.60;;
30133;SDS011;16946;49.984;10.672;2022-12-31T02:57:35;1.58;;;0.70;;
30133;SDS011;16946;49.984;10.672;2022-12-31T02:58:34;0.50;;;0.50;;
30133;SDS011;16946;49.984;10.672;2022-12-31T03:00:28;1.30;;;0.60;;
30133;SDS011;16946;49.984;10.672;2022-12-31T03:01:21;0.40;;;0.40;;
30133;SDS011;16946;49.984;10.672;2022-12-31T03:02:14;0.45;;;0.45;;
30133;SDS011;16946;49.984;10.672;2022-12-31T03:02:48;0.65;;;0.60;;
30133;SDS011;16946;49.984;10.672;2022-12-31T03:03:20;1.30;;;0.50;;
30133;SDS011;16946;49.984;10.672;2022-12-31T03:03:51;0.60;;;0.60;;
30133;SDS011;16946;49.984;10.672;2022-12-31T03:04:46;0.60;;;0.60;;
30133;SDS011;16946;49.984;10.672;2022-12-31T03:05:23;0.60;;;0.60;;
30133;SDS011;16946;49.984;10.672;2022-12-31T03:05:56;0.60;;;0.60;;
30133;SDS011;16946;49.984;10.672;2022-12-31T03:06:29;1.27;;;0.70;;
30133;SDS011;16946;49.984;10.672;2022-12-31T03:07:04;1.13;;;0.50;;
30133;SDS011;16946;49.984;10.672;2022-12-31T03:07:38;1.90;;;0.70;;
30133;SDS011;16946;49.984;10.672;2022-12-31T03:08:09;0.60;;;0.60;;
30133;SDS011;16946;49.984;10.672;2022-12-31T03:08:40;0.70;;;0.70;;
30133;SDS011;16946;49.984;10.672;2022-12-31T03:09:31;1.33;;;0.57;;
30133;SDS011;16946;49.984;10.672;2022-12-31T03:10:02;0.63;;;0.60;;
30133;SDS011;16946;49.984;10.672;2022-12-31T03:10:33;0.80;;;0.60;;
30133;SDS011;16946;49.984;10.672;2022-12-31T03:11:04;0.80;;;0.70;;
30133;SDS011;16946;49.984;10.672;2022-12-31T03:11:55;1.50;;;0.60;;
30133;SDS011;16946;49.984;10.672;2022-12-31T03:12:44;2.45;;;0.70;;
30133;SDS011;16946;49.984;10.672;2022-12-31T03:13:15;0.70;;;0.70;;
30133;SDS011;16946;49.984;10.672;2022-12-31T03:13:46;1.90;;;0.60;;
30133;SDS011;16946;49.984;10.672;2022-12-31T03:14:17;1.23;;;0.60;;
30133;SDS011;16946;49.984;10.672;2022-12-31T03:14:47;0.70;;;0.70;;
30133;SDS011;16946;49.984;10.672;2022-12-31T03:15:23;2.22;;;0.70;;
30133;SDS011;16946;49.984;10.672;2022-12-31T03:15:59;0.80;;;0.65;;
30133;SDS011;16946;49.984;10.672;2022-12-31T03:16:30;0.97;;;0.70;;
30133;SDS011;16946;49.984;10.672;2022-12-31T03:17:00;1.87;;;0.90;;
30133;SDS011;16946;49.984;10.672;2022-12-31T03:17:31;2.47;;;0.80;;
30133;SDS011;16946;49.984;10.672;2022-12-31T03:18:09;0.70;;;0.70;;
30133;SDS011;16946;49.984;10.672;2022-12-31T03:18:44;1.10;;;0.73;;
30133;SDS011;16946;49.984;10.672;2022-12-31T03:19:33;1.27;;;0.63;;
30133;SDS011;16946;49.984;10.672;2022-12-31T03:20:24;1.00;;;0.80;;
30133;SDS011;16946;49.984;10.672;2022-12-31T03:21:20;1.13;;;0.85;;
30133;SDS011;16946;49.984;10.672;2022-12-31T03:22:12;0.50;;;0.50;;
30133;SDS011;16946;49.984;10.672;2022-12-31T03:22:58;0.82;;;0.70;;
30133;SDS011;16946;49.984;10.672;2022-12-31T03:23:30;1.00;;;0.80;;
30133;SDS011;16946;49.984;10.672;2022-12-31T03:24:05;1.70;;;0.70;;
30133;SDS011;16946;49.984;10.672;2022-12-31T03:24:55;0.90;;;0.80;;
30133;SDS011;16946;49.984;10.672;2022-12-31T03:25:49;1.00;;;0.75;;
30133;SDS011;16946;49.984;10.672;2022-12-31T03:26:22;0.70;;;0.60;;
30133;SDS011;16946;49.984;10.672;2022-12-31T03:26:52;1.30;;;0.80;;
30133;SDS011;16946;49.984;10.672;2022-12-31T03:27:23;2.20;;;0.70;;
30133;SDS011;16946;49.984;10.672;2022-12-31T03:27:53;1.47;;;0.70;;
30133;SDS011;16946;49.984;10.672;2022-12-31T03:28:26;1.45;;;0.60;;
30133;SDS011;16946;49.984;10.672;2022-12-31T03:28:58;0.93;;;0.63;;
30133;SDS011;16946;49.984;10.672;2022-12-31T03:29:29;0.90;;;0.80;;
30133;SDS011;16946;49.984;10.672;2022-12-31T03:29:59;2.07;;;0.80;;
30133;SDS011;16946;49.984;10.672;2022-12-31T03:30:30;0.87;;;0.80;;
30133;SDS011;16946;49.984;10.672;2022-12-31T03:31:01;1.70;;;1.05;;
30133;SDS011;16946;49.984;10.672;2022-12-31T03:31:32;1.08;;;0.85;;
30133;SDS011;16946;49.984;10.672;2022-12-31T03:32:03;0.93;;;0.87;;
30133;SDS011;16946;49.984;10.672;2022-12-31T03:32:33;1.17;;;0.90;;
30133;SDS011;16946;49.984;10.672;2022-12-31T03:33:04;1.13;;;0.77;;
30133;SDS011;16946;49.984;10.672;2022-12-31T03:33:37;0.82;;;0.75;;
30133;SDS011;16946;49.984;10.672;2022-12-31T03:34:09;1.95;;;0.80;;
30133;SDS011;16946;49.984;10.672;2022-12-31T03:34:40;1.13;;;0.80;;
30133;SDS011;16946;49.984;10.672;2022-12-31T03:35:11;1.23;;;0.80;;
30133;SDS011;16946;49.984;10.672;2022-12-31T03:35:44;1.30;;;0.65;;
30133;SDS011;16946;49.984;10.672;2022-12-31T03:36:16;1.17;;;0.90;;
30133;SDS011;16946;49.984;10.672;2022-12-31T03:36:46;1.47;;;0.80;;
30133;SDS011;16946;49.984;10.672;2022-12-31T03:37:17;1.10;;;0.70;;
30133;SDS011;16946;49.984;10.672;2022-12-31T03:37:48;1.33;;;0.70;;
30133;SDS011;16946;49.984;10.672;2022-12-31T03:38:19;1.42;;;0.70;;
30133;SDS011;16946;49.984;10.672;2022-12-31T03:38:49;0.90;;;0.80;;
30133;SDS011;16946;49.984;10.672;2022-12-31T03:39:21;0.90;;;0.60;;
30133;SDS011;16946;49.984;10.672;2022-12-31T03:39:52;0.93;;;0.87;;
30133;SDS011;16946;49.984;10.672;2022-12-31T03:40:23;1.27;;;0.93;;
30133;SDS011;16946;49.984;10.672;2022-12-31T03:40:55;1.42;;;0.88;;
30133;SDS011;16946;49.984;10.672;2022-12-31T03:41:25;1.40;;;0.83;;